createdAt,value
2022-08-01T00:00:46.084Z,87.40
2022-08-01T00:03:12.964Z,88.10
2022-08-01T00:05:39.906Z,88.20
2022-08-01T00:08:06.732Z,88.20
2022-08-01T00:10:36.230Z,88.50
2022-08-01T00:13:04.083Z,88.30
2022-08-01T00:15:32.088Z,88.40
2022-08-01T00:17:59.060Z,88.50
2022-08-01T00:20:25.971Z,88.60
2022-08-01T00:22:52.753Z,88.70
2022-08-01T00:25:19.758Z,88.30
2022-08-01T00:27:47.534Z,88.10
2022-08-01T00:30:15.132Z,88.10
2022-08-01T00:32:43.129Z,88.20
2022-08-01T00:35:10.478Z,88.60
2022-08-01T00:37:37.320Z,88.70
2022-08-01T00:40:04.637Z,89.10
2022-08-01T00:42:31.442Z,89.60
2022-08-01T00:45:01.473Z,89.40
2022-08-01T00:47:28.808Z,89.40
2022-08-01T00:49:55.873Z,89.70
2022-08-01T00:52:22.982Z,89.60
2022-08-01T00:54:49.916Z,90.10
2022-08-01T00:57:16.774Z,90.30
2022-08-01T01:00:05.712Z,90.60
2022-08-01T01:02:33.523Z,90.70
2022-08-01T01:05:00.357Z,91.10
2022-08-01T01:07:50.084Z,90.90
2022-08-01T01:10:56.393Z,91.00
2022-08-01T01:13:36.362Z,91.00
2022-08-01T01:16:20.987Z,91.20
2022-08-01T01:19:01.454Z,90.90
2022-08-01T01:21:57.360Z,91.10
2022-08-01T01:24:45.857Z,91.80
2022-08-01T01:27:37.528Z,92.10
2022-08-01T01:30:04.933Z,92.20
2022-08-01T01:32:39.947Z,92.30
2022-08-01T01:35:11.535Z,92.30
2022-08-01T01:37:40.767Z,92.60
2022-08-01T01:40:10.628Z,92.20
2022-08-01T01:42:38.109Z,90.80
2022-08-01T01:45:06.318Z,89.70
2022-08-01T01:47:35.207Z,89.70
2022-08-01T01:50:04.883Z,89.20
2022-08-01T01:52:32.918Z,89.00
2022-08-01T01:55:03.409Z,89.00
2022-08-01T01:57:32.045Z,88.50
2022-08-01T02:00:00.855Z,88.10
2022-08-01T02:02:29.088Z,88.20
2022-08-01T02:04:59.036Z,87.80
2022-08-01T02:07:26.939Z,87.90
2022-08-01T02:09:55.992Z,87.90
2022-08-01T02:12:24.215Z,87.70
2022-08-01T02:14:54.331Z,87.60
2022-08-01T02:17:22.124Z,87.90
2022-08-01T02:19:49.141Z,87.70
2022-08-01T02:22:26.755Z,87.60
2022-08-01T02:25:00.729Z,87.60
2022-08-01T02:28:17.950Z,87.70
2022-08-01T02:30:48.320Z,87.70
2022-08-01T02:33:49.297Z,87.80
2022-08-01T02:36:32.564Z,87.90
2022-08-01T02:39:04.161Z,88.00
2022-08-01T02:41:32.596Z,88.50
2022-08-01T02:44:05.630Z,88.60
2022-08-01T02:46:44.169Z,88.70
2022-08-01T02:49:12.036Z,88.60
2022-08-01T02:51:41.713Z,88.70
2022-08-01T02:54:10.900Z,88.80
2022-08-01T02:56:41.673Z,89.00
2022-08-01T02:59:15.661Z,89.00
2022-08-01T03:01:47.251Z,89.10
2022-08-01T03:04:18.691Z,89.00
2022-08-01T03:06:46.866Z,89.20
2022-08-01T03:09:16.715Z,89.10
2022-08-01T03:11:46.472Z,89.10
2022-08-01T03:14:15.176Z,89.10
2022-08-01T03:16:44.565Z,89.00
2022-08-01T03:19:12.668Z,89.00
2022-08-01T03:21:41.737Z,89.10
2022-08-01T03:24:11.102Z,89.10
2022-08-01T03:26:40.625Z,89.70
2022-08-01T03:29:11.674Z,89.80
2022-08-01T03:31:43.643Z,90.40
2022-08-01T03:34:10.784Z,90.70
2022-08-01T03:37:04.674Z,91.30
2022-08-01T03:39:37.945Z,90.70
2022-08-01T03:42:13.922Z,90.30
2022-08-01T03:44:42.329Z,90.40
2022-08-01T03:47:12.107Z,90.60
2022-08-01T03:49:44.150Z,90.90
2022-08-01T03:52:12.285Z,90.90
2022-08-01T03:54:46.962Z,90.80
2022-08-01T03:57:35.902Z,90.90
2022-08-01T04:00:03.091Z,91.50
2022-08-01T04:02:39.669Z,91.30
2022-08-01T04:05:08.222Z,91.70
2022-08-01T04:07:39.995Z,91.90
2022-08-01T04:10:07.652Z,92.00
2022-08-01T04:12:35.677Z,92.10
2022-08-01T04:15:02.812Z,92.40
2022-08-01T04:17:29.793Z,92.00
2022-08-01T04:19:56.885Z,91.50
2022-08-01T04:22:23.903Z,92.40
2022-08-01T04:24:56.958Z,92.40
2022-08-01T04:27:49.694Z,91.90
2022-08-01T04:30:23.541Z,91.60
2022-08-01T04:32:52.042Z,91.30
2022-08-01T04:35:36.016Z,90.40
2022-08-01T04:38:11.447Z,91.60
2022-08-01T04:40:41.138Z,90.40
2022-08-01T04:43:08.503Z,90.40
2022-08-01T04:45:37.382Z,89.60
2022-08-01T04:48:07.697Z,89.60
2022-08-01T04:50:36.567Z,89.50
2022-08-01T04:53:04.327Z,89.10
2022-08-01T04:55:32.293Z,88.70
2022-08-01T04:57:59.306Z,88.30
2022-08-01T05:00:27.397Z,88.30
2022-08-01T05:02:54.193Z,88.20
2022-08-01T05:05:21.953Z,88.10
2022-08-01T05:07:48.870Z,88.00
2022-08-01T05:10:15.703Z,87.90
2022-08-01T05:12:42.672Z,88.20
2022-08-01T05:15:15.130Z,88.30
2022-08-01T05:17:43.564Z,88.40
2022-08-01T05:20:12.459Z,88.40
2022-08-01T05:22:39.632Z,88.00
2022-08-01T05:25:07.345Z,87.60
2022-08-01T05:27:39.170Z,88.00
2022-08-01T05:30:08.646Z,86.50
2022-08-01T05:32:35.719Z,86.20
2022-08-01T05:35:02.815Z,85.10
2022-08-01T05:37:29.599Z,85.00
2022-08-01T05:39:56.528Z,84.60
2022-08-01T05:42:23.489Z,83.00
2022-08-01T05:44:51.666Z,83.20
2022-08-01T05:47:19.134Z,81.80
2022-08-01T05:49:46.989Z,81.30
2022-08-01T05:52:14.166Z,80.10
2022-08-01T05:54:41.371Z,81.20
2022-08-01T05:57:08.233Z,80.30
2022-08-01T05:59:35.182Z,79.40
2022-08-01T06:02:02.276Z,79.00
2022-08-01T06:04:29.384Z,79.00
2022-08-01T06:06:57.046Z,79.40
2022-08-01T06:09:24.162Z,79.00
2022-08-01T06:11:50.989Z,79.10
2022-08-01T06:14:17.839Z,79.70
2022-08-01T06:16:44.694Z,79.00
2022-08-01T06:19:11.488Z,79.30
2022-08-01T06:21:38.323Z,78.90
2022-08-01T06:24:05.693Z,78.30
2022-08-01T06:26:32.687Z,78.70
2022-08-01T06:28:59.519Z,76.20
2022-08-01T06:31:30.460Z,76.70
2022-08-01T06:34:00.500Z,75.60
2022-08-01T06:36:27.476Z,75.80
2022-08-01T06:38:54.423Z,74.80
2022-08-01T06:41:21.368Z,75.70
2022-08-01T06:43:48.264Z,76.00
2022-08-01T06:46:15.191Z,75.60
2022-08-01T06:48:42.098Z,75.80
2022-08-01T06:51:09.189Z,75.10
2022-08-01T06:53:39.374Z,74.90
2022-08-01T06:56:07.896Z,73.50
2022-08-01T06:58:35.620Z,73.40
2022-08-01T07:01:06.949Z,73.20
2022-08-01T07:03:54.084Z,72.90
2022-08-01T07:06:23.828Z,72.20
2022-08-01T07:08:51.164Z,71.90
2022-08-01T07:11:18.223Z,70.70
2022-08-01T07:13:46.721Z,72.40
2022-08-01T07:16:14.638Z,71.60
2022-08-01T07:18:41.972Z,72.20
2022-08-01T07:21:16.370Z,71.60
2022-08-01T07:23:56.322Z,71.90
2022-08-01T07:26:23.482Z,71.30
2022-08-01T07:28:50.556Z,71.70
2022-08-01T07:31:17.725Z,72.30
2022-08-01T07:33:48.686Z,73.00
2022-08-01T07:36:19.578Z,72.00
2022-08-01T07:38:47.670Z,72.40
2022-08-01T07:41:15.328Z,72.10
2022-08-01T07:43:50.561Z,71.30
2022-08-01T07:46:21.588Z,73.20
2022-08-01T07:48:48.459Z,72.90
2022-08-01T07:51:15.298Z,72.60
2022-08-01T07:53:42.239Z,71.90
2022-08-01T07:56:09.133Z,71.50
2022-08-01T07:58:36.300Z,71.40
2022-08-01T08:01:03.322Z,70.50
2022-08-01T08:03:30.240Z,70.70
2022-08-01T08:05:57.950Z,68.90
2022-08-01T08:08:26.506Z,67.60
2022-08-01T08:10:53.494Z,64.80
2022-08-01T08:13:20.927Z,64.50
2022-08-01T08:15:48.891Z,63.30
2022-08-01T08:18:16.578Z,63.70
2022-08-01T08:20:44.073Z,63.80
2022-08-01T08:23:41.949Z,64.90
2022-08-01T08:26:13.682Z,64.90
2022-08-01T08:28:40.914Z,67.10
2022-08-01T08:31:50.956Z,68.20
2022-08-01T08:33:55.967Z,68.20
2022-08-01T08:36:30.993Z,68.10
2022-08-01T08:39:01.776Z,68.70
2022-08-01T08:41:38.166Z,68.30
2022-08-01T08:44:10.550Z,68.00
2022-08-01T08:46:49.685Z,63.20
2022-08-01T08:49:19.903Z,60.90
2022-08-01T08:51:50.987Z,60.20
2022-08-01T08:54:21.644Z,59.60
2022-08-01T08:56:49.980Z,61.50
2022-08-01T08:59:17.310Z,62.20
2022-08-01T09:01:44.215Z,62.80
2022-08-01T09:04:12.147Z,64.60
2022-08-01T09:06:39.927Z,66.10
2022-08-01T09:09:08.096Z,68.00
2022-08-01T09:11:35.695Z,70.20
2022-08-01T09:14:11.197Z,71.70
2022-08-01T09:16:48.347Z,73.20
2022-08-01T09:19:38.983Z,75.20
2022-08-01T09:22:09.196Z,76.30
2022-08-01T09:24:36.576Z,77.30
2022-08-01T09:27:21.916Z,77.30
2022-08-01T09:29:59.707Z,78.50
2022-08-01T09:32:36.115Z,78.80
2022-08-01T09:35:30.196Z,79.50
2022-08-01T09:38:15.438Z,80.10
2022-08-01T09:40:55.961Z,79.70
2022-08-01T09:43:28.333Z,79.00
2022-08-01T09:45:56.969Z,77.40
2022-08-01T09:48:28.602Z,74.70
2022-08-01T09:51:04.367Z,73.00
2022-08-01T09:53:51.852Z,73.20
2022-08-01T09:56:22.822Z,73.00
2022-08-01T09:59:01.020Z,73.30
2022-08-01T10:01:42.033Z,72.20
2022-08-01T10:04:18.441Z,72.50
2022-08-01T10:06:50.227Z,73.80
2022-08-01T10:09:35.964Z,73.40
2022-08-01T10:12:15.714Z,72.90
2022-08-01T10:14:50.402Z,71.70
2022-08-01T10:17:19.891Z,71.90
2022-08-01T10:19:51.337Z,71.00
2022-08-01T10:22:20.712Z,70.60
2022-08-01T10:24:48.928Z,70.20
2022-08-01T10:27:21.643Z,69.70
2022-08-01T10:30:14.223Z,68.80
2022-08-01T10:32:50.490Z,65.40
2022-08-01T10:35:45.518Z,63.30
2022-08-01T10:38:06.794Z,62.00
2022-08-01T10:40:38.483Z,56.80
2022-08-01T10:43:07.614Z,52.80
2022-08-01T10:45:35.313Z,51.20
2022-08-01T10:48:54.272Z,51.70
2022-08-01T10:51:27.039Z,47.40
2022-08-01T10:54:11.750Z,48.60
2022-08-01T10:56:46.052Z,47.10
2022-08-01T10:59:29.227Z,46.80
2022-08-01T11:02:10.473Z,47.70
2022-08-01T11:04:56.303Z,50.00
2022-08-01T11:07:38.973Z,51.50
2022-08-01T11:10:30.740Z,53.40
2022-08-01T11:12:57.701Z,54.50
2022-08-01T11:15:29.096Z,55.60
2022-08-01T11:18:00.614Z,56.60
2022-08-01T11:20:30.989Z,58.10
2022-08-01T11:23:07.073Z,57.70
2022-08-01T11:26:05.470Z,58.20
2022-08-01T11:28:34.860Z,57.30
2022-08-01T11:31:11.873Z,56.20
2022-08-01T11:33:47.320Z,56.50
2022-08-01T11:36:15.224Z,58.00
2022-08-01T11:38:48.135Z,57.70
2022-08-01T11:41:16.569Z,58.40
2022-08-01T11:44:06.847Z,58.40
2022-08-01T11:46:47.536Z,58.90
2022-08-01T11:49:33.774Z,59.50
2022-08-01T11:52:13.987Z,58.20
2022-08-01T11:54:48.109Z,58.70
2022-08-01T11:57:34.548Z,58.10
2022-08-01T12:00:15.026Z,58.70
2022-08-01T12:02:46.061Z,56.60
2022-08-01T12:05:19.228Z,56.80
2022-08-01T12:07:50.129Z,55.80
2022-08-01T12:10:19.718Z,56.80
2022-08-01T12:12:54.676Z,56.30
2022-08-01T12:15:25.254Z,57.20
2022-08-01T12:17:59.700Z,57.10
2022-08-01T12:20:31.054Z,57.00
2022-08-01T12:23:04.429Z,56.80
2022-08-01T12:25:31.741Z,57.70
2022-08-01T12:28:09.614Z,56.50
2022-08-01T12:30:38.705Z,55.60
2022-08-01T12:33:11.085Z,56.90
2022-08-01T12:35:39.229Z,55.70
2022-08-01T12:38:14.371Z,56.00
2022-08-01T12:40:53.172Z,55.40
2022-08-01T12:43:28.288Z,52.80
2022-08-01T12:45:59.231Z,51.70
2022-08-01T12:48:26.667Z,49.20
2022-08-01T12:50:56.889Z,48.60
2022-08-01T12:53:23.831Z,46.80
2022-08-01T12:55:59.575Z,46.70
2022-08-01T12:58:34.444Z,46.90
2022-08-01T13:01:10.152Z,46.10
2022-08-01T13:03:38.264Z,45.40
2022-08-01T13:06:17.154Z,44.70
2022-08-01T13:08:45.869Z,43.00
2022-08-01T13:11:16.331Z,43.40
2022-08-01T13:13:48.336Z,43.40
2022-08-01T13:16:34.323Z,44.40
2022-08-01T13:19:07.410Z,45.90
2022-08-01T13:21:54.024Z,47.20
2022-08-01T13:24:30.079Z,48.30
2022-08-01T13:27:05.106Z,48.00
2022-08-01T13:29:35.217Z,49.80
2022-08-01T13:32:28.587Z,50.80
2022-08-01T13:35:23.563Z,52.30
2022-08-01T13:37:50.912Z,53.00
2022-08-01T13:40:26.777Z,52.50
2022-08-01T13:42:56.569Z,52.60
2022-08-01T13:45:24.555Z,53.70
2022-08-01T13:48:03.525Z,53.70
2022-08-01T13:50:39.729Z,54.90
2022-08-01T13:53:06.704Z,53.70
2022-08-01T13:55:35.279Z,53.30
2022-08-01T13:58:03.933Z,54.10
2022-08-01T14:00:31.130Z,54.90
2022-08-01T14:02:58.066Z,54.20
2022-08-01T14:05:24.898Z,53.40
2022-08-01T14:07:56.265Z,54.00
2022-08-01T14:10:24.516Z,53.50
2022-08-01T14:12:51.659Z,54.40
2022-08-01T14:15:37.986Z,54.50
2022-08-01T14:18:07.200Z,55.20
2022-08-01T14:20:36.004Z,55.60
2022-08-01T14:23:03.012Z,56.20
2022-08-01T14:26:03.940Z,56.40
2022-08-01T14:28:17.065Z,56.10
2022-08-01T14:30:44.291Z,55.90
2022-08-01T14:33:12.436Z,57.20
2022-08-01T14:36:02.182Z,56.70
2022-08-01T14:38:29.527Z,56.70
2022-08-01T14:40:59.434Z,57.20
2022-08-01T14:43:32.445Z,57.10
2022-08-01T14:46:01.425Z,57.00
2022-08-01T14:48:28.263Z,58.00
2022-08-01T14:50:58.870Z,58.40
2022-08-01T14:53:25.759Z,58.30
2022-08-01T14:55:52.618Z,58.50
2022-08-01T14:58:19.680Z,57.80
2022-08-01T15:00:46.981Z,58.00
2022-08-01T15:03:14.177Z,57.80
2022-08-01T15:05:41.325Z,57.60
2022-08-01T15:08:08.331Z,58.70
2022-08-01T15:10:35.243Z,57.40
2022-08-01T15:13:02.711Z,58.60
2022-08-01T15:15:30.220Z,58.00
2022-08-01T15:17:57.624Z,58.00
2022-08-01T15:20:26.372Z,58.40
2022-08-01T15:22:53.772Z,56.90
2022-08-01T15:25:21.331Z,57.00
2022-08-01T15:27:48.451Z,55.60
2022-08-01T15:30:15.416Z,55.80
2022-08-01T15:32:42.421Z,55.10
2022-08-01T15:35:11.110Z,56.50
2022-08-01T15:37:42.609Z,56.20
2022-08-01T15:40:12.270Z,56.40
2022-08-01T15:42:39.473Z,56.80
2022-08-01T15:45:10.620Z,56.70
2022-08-01T15:47:40.266Z,57.10
2022-08-01T15:50:07.971Z,57.40
2022-08-01T15:52:35.151Z,57.50
2022-08-01T15:55:02.700Z,57.00
2022-08-01T15:57:29.778Z,56.80
2022-08-01T15:59:56.762Z,57.00
2022-08-01T16:02:23.904Z,57.80
2022-08-01T16:04:51.251Z,57.60
2022-08-01T16:07:18.376Z,57.80
2022-08-01T16:09:45.299Z,58.80
2022-08-01T16:12:12.074Z,57.30
2022-08-01T16:14:38.934Z,58.60
2022-08-01T16:17:05.905Z,58.00
2022-08-01T16:19:32.955Z,57.90
2022-08-01T16:21:59.921Z,58.00
2022-08-01T16:24:29.458Z,57.70
2022-08-01T16:26:56.940Z,58.40
2022-08-01T16:29:24.138Z,57.10
2022-08-01T16:31:59.033Z,58.20
2022-08-01T16:34:38.255Z,58.20
2022-08-01T16:37:09.369Z,57.60
2022-08-01T16:39:36.574Z,58.30
2022-08-01T16:42:03.529Z,58.40
2022-08-01T16:44:33.692Z,57.10
2022-08-01T16:47:03.567Z,57.10
2022-08-01T16:49:32.098Z,57.70
2022-08-01T16:51:59.453Z,58.70
2022-08-01T16:54:26.659Z,58.50
2022-08-01T16:56:54.613Z,58.90
2022-08-01T16:59:23.068Z,59.10
2022-08-01T17:01:57.829Z,58.50
2022-08-01T17:04:30.092Z,59.70
2022-08-01T17:06:57.814Z,59.60
2022-08-01T17:09:24.887Z,59.30
2022-08-01T17:11:51.978Z,59.40
2022-08-01T17:14:19.109Z,59.80
2022-08-01T17:16:46.506Z,60.80
2022-08-01T17:19:14.738Z,60.50
2022-08-01T17:21:42.325Z,61.00
2022-08-01T17:24:09.855Z,60.10
2022-08-01T17:26:36.891Z,62.10
2022-08-01T17:29:04.078Z,60.60
2022-08-01T17:31:31.626Z,61.40
2022-08-01T17:33:58.500Z,59.90
2022-08-01T17:36:25.375Z,61.40
2022-08-01T17:38:52.208Z,61.40
2022-08-01T17:41:19.074Z,62.20
2022-08-01T17:43:45.938Z,62.50
2022-08-01T17:46:13.166Z,61.90
2022-08-01T17:48:40.122Z,61.50
2022-08-01T17:51:07.372Z,62.40
2022-08-01T17:53:34.310Z,61.70
2022-08-01T17:56:05.469Z,62.80
2022-08-01T17:58:49.208Z,62.30
2022-08-01T18:01:19.867Z,62.40
2022-08-01T18:03:49.436Z,63.20
2022-08-01T18:06:19.461Z,62.40
2022-08-01T18:08:47.553Z,62.00
2022-08-01T18:11:15.971Z,63.30
2022-08-01T18:13:43.438Z,64.50
2022-08-01T18:16:12.961Z,64.80
2022-08-01T18:18:41.726Z,64.40
2022-08-01T18:21:09.193Z,62.70
2022-08-01T18:23:36.170Z,65.00
2022-08-01T18:26:06.897Z,64.20
2022-08-01T18:28:41.625Z,65.10
2022-08-01T18:31:09.594Z,65.10
2022-08-01T18:33:36.897Z,64.00
2022-08-01T18:36:04.646Z,64.80
2022-08-01T18:38:33.232Z,65.60
2022-08-01T18:41:01.440Z,66.30
2022-08-01T18:43:28.867Z,65.90
2022-08-01T18:45:58.618Z,66.80
2022-08-01T18:48:27.918Z,67.60
2022-08-01T18:50:55.257Z,67.40
2022-08-01T18:53:25.873Z,66.80
2022-08-01T18:55:53.117Z,67.00
2022-08-01T18:58:20.642Z,67.00
2022-08-01T19:00:48.135Z,66.60
2022-08-01T19:03:16.007Z,67.40
2022-08-01T19:05:43.742Z,67.90
2022-08-01T19:08:11.964Z,68.20
2022-08-01T19:10:40.566Z,68.80
2022-08-01T19:13:08.760Z,68.00
2022-08-01T19:15:36.500Z,69.00
2022-08-01T19:18:04.728Z,69.10
2022-08-01T19:20:37.648Z,69.00
2022-08-01T19:23:25.523Z,69.60
2022-08-01T19:25:56.295Z,69.50
2022-08-01T19:28:27.532Z,70.20
2022-08-01T19:30:55.695Z,72.10
2022-08-01T19:33:23.039Z,70.80
2022-08-01T19:35:52.495Z,70.30
2022-08-01T19:38:19.667Z,71.90
2022-08-01T19:40:46.480Z,71.90
2022-08-01T19:43:14.648Z,72.60
2022-08-01T19:45:41.845Z,71.90
2022-08-01T19:48:08.636Z,71.60
2022-08-01T19:50:41.164Z,71.90
2022-08-01T19:53:11.370Z,72.10
2022-08-01T19:55:40.327Z,72.00
2022-08-01T19:58:26.442Z,72.70
2022-08-01T20:00:54.886Z,72.50
2022-08-01T20:03:22.624Z,72.90
2022-08-01T20:05:51.070Z,73.30
2022-08-01T20:08:19.574Z,73.80
2022-08-01T20:10:47.720Z,74.40
2022-08-01T20:13:15.719Z,74.30
2022-08-01T20:15:44.048Z,74.60
2022-08-01T20:18:10.893Z,74.30
2022-08-01T20:20:38.461Z,75.10
2022-08-01T20:23:10.528Z,74.80
2022-08-01T20:25:49.385Z,75.30
2022-08-01T20:28:20.896Z,74.90
2022-08-01T20:30:54.385Z,75.40
2022-08-01T20:33:21.391Z,75.40
2022-08-01T20:35:51.548Z,75.80
2022-08-01T20:38:23.829Z,75.70
2022-08-01T20:40:53.235Z,75.60
2022-08-01T20:43:21.545Z,75.50
2022-08-01T20:45:50.425Z,75.40
2022-08-01T20:48:18.303Z,75.30
2022-08-01T20:51:08.273Z,75.00
2022-08-01T20:53:40.793Z,75.10
2022-08-01T20:56:19.478Z,74.80
2022-08-01T20:59:08.916Z,74.80
2022-08-01T21:01:53.983Z,75.00
2022-08-01T21:04:21.141Z,74.90
2022-08-01T21:07:07.563Z,74.80
2022-08-01T21:09:42.815Z,74.60
2022-08-01T21:12:20.388Z,74.90
2022-08-01T21:14:53.321Z,74.60
2022-08-01T21:17:57.000Z,74.40
2022-08-01T21:20:27.998Z,75.20
2022-08-01T21:23:39.433Z,74.80
2022-08-01T21:26:22.588Z,74.60
2022-08-01T21:28:54.542Z,74.60
2022-08-01T21:31:40.827Z,74.60
2022-08-01T21:34:16.323Z,74.60
2022-08-01T21:36:45.732Z,75.00
2022-08-01T21:39:13.604Z,75.20
2022-08-01T21:42:04.766Z,75.20
2022-08-01T21:44:32.841Z,75.30
2022-08-01T21:47:00.599Z,75.40
2022-08-01T21:49:27.936Z,75.60
2022-08-01T21:52:05.135Z,75.70
2022-08-01T21:55:01.812Z,76.00
2022-08-01T21:57:39.099Z,76.20
2022-08-01T22:00:25.654Z,76.40
2022-08-01T22:03:05.281Z,76.20
2022-08-01T22:05:42.552Z,76.30
2022-08-01T22:08:28.887Z,76.70
2022-08-01T22:10:59.134Z,76.70
2022-08-01T22:13:26.091Z,77.20
2022-08-01T22:15:57.910Z,77.20
2022-08-01T22:18:27.204Z,77.10
2022-08-01T22:20:55.026Z,77.30
2022-08-01T22:23:23.085Z,77.30
2022-08-01T22:25:54.472Z,77.20
2022-08-01T22:28:22.562Z,77.40
2022-08-01T22:30:51.772Z,77.60
2022-08-01T22:33:19.436Z,77.90
2022-08-01T22:35:48.876Z,78.30
2022-08-01T22:38:19.210Z,78.40
2022-08-01T22:40:51.913Z,78.50
2022-08-01T22:43:26.288Z,78.40
2022-08-01T22:46:28.297Z,78.60
2022-08-01T22:49:15.753Z,78.60
2022-08-01T22:51:58.122Z,78.50
2022-08-01T22:54:41.022Z,78.80
2022-08-01T22:57:14.332Z,79.20
2022-08-01T23:00:04.107Z,78.70
2022-08-01T23:02:33.153Z,79.50
2022-08-01T23:05:04.754Z,79.00
2022-08-01T23:07:34.923Z,79.50
2022-08-01T23:10:05.502Z,79.40
2022-08-01T23:12:33.310Z,79.60
2022-08-01T23:15:01.855Z,79.60
2022-08-01T23:17:31.128Z,80.00
2022-08-01T23:20:04.447Z,80.70
2022-08-01T23:22:33.509Z,80.80
2022-08-01T23:25:05.187Z,81.00
2022-08-01T23:27:54.200Z,81.10
2022-08-01T23:30:28.245Z,80.90
2022-08-01T23:32:55.719Z,81.00
2022-08-01T23:35:22.841Z,81.00
2022-08-01T23:37:51.192Z,81.10
2022-08-01T23:40:18.994Z,81.20
2022-08-01T23:42:46.328Z,81.60
2022-08-01T23:45:13.436Z,81.70
2022-08-01T23:47:41.543Z,82.30
2022-08-01T23:50:09.909Z,82.60
2022-08-01T23:52:42.598Z,82.60
2022-08-01T23:55:15.773Z,82.60
2022-08-01T23:57:48.974Z,82.30
